sensor_id;sensor_type;location;lat;lon;timestamp;pressure;altitude;pressure_sealevel;temperature
18704;BMP180;9481;48.796;9.210;2022-08-19T00:01:51;96188.00;;;27.30
18704;BMP180;9481;48.796;9.210;2022-08-19T00:04:24;96182.00;;;27.30
18704;BMP180;9481;48.796;9.210;2022-08-19T00:06:51;96179.00;;;27.30
18704;BMP180;9481;48.796;9.210;2022-08-19T00:09:19;96187.00;;;27.30
18704;BMP180;9481;48.796;9.210;2022-08-19T00:11:46;96182.00;;;27.30
18704;BMP180;9481;48.796;9.210;2022-08-19T00:14:15;96188.00;;;27.30
18704;BMP180;9481;48.796;9.210;2022-08-19T00:16:43;96190.00;;;27.30
18704;BMP180;9481;48.796;9.210;2022-08-19T00:19:10;96181.00;;;27.30
18704;BMP180;9481;48.796;9.210;2022-08-19T00:21:35;96193.00;;;27.30
18704;BMP180;9481;48.796;9.210;2022-08-19T00:24:09;96189.00;;;27.30
18704;BMP180;9481;48.796;9.210;2022-08-19T00:26:36;96187.00;;;27.30
18704;BMP180;9481;48.796;9.210;2022-08-19T00:29:04;96191.00;;;27.20
18704;BMP180;9481;48.796;9.210;2022-08-19T00:31:30;96181.00;;;27.20
18704;BMP180;9481;48.796;9.210;2022-08-19T00:33:57;96182.00;;;27.20
18704;BMP180;9481;48.796;9.210;2022-08-19T00:36:23;96173.00;;;27.20
18704;BMP180;9481;48.796;9.210;2022-08-19T00:38:49;96155.00;;;27.20
18704;BMP180;9481;48.796;9.210;2022-08-19T00:41:19;96155.00;;;27.20
18704;BMP180;9481;48.796;9.210;2022-08-19T00:44:02;96158.00;;;27.10
18704;BMP180;9481;48.796;9.210;2022-08-19T00:46:29;96165.00;;;27.20
18704;BMP180;9481;48.796;9.210;2022-08-19T00:48:56;96164.00;;;27.20
18704;BMP180;9481;48.796;9.210;2022-08-19T00:51:25;96168.00;;;27.20
18704;BMP180;9481;48.796;9.210;2022-08-19T00:53:55;96159.00;;;27.10
18704;BMP180;9481;48.796;9.210;2022-08-19T00:56:23;96177.00;;;27.10
18704;BMP180;9481;48.796;9.210;2022-08-19T00:58:49;96182.00;;;27.10
18704;BMP180;9481;48.796;9.210;2022-08-19T01:01:15;96178.00;;;27.10
18704;BMP180;9481;48.796;9.210;2022-08-19T01:03:41;96175.00;;;27.10
18704;BMP180;9481;48.796;9.210;2022-08-19T01:06:07;96181.00;;;27.10
18704;BMP180;9481;48.796;9.210;2022-08-19T01:08:33;96178.00;;;27.10
18704;BMP180;9481;48.796;9.210;2022-08-19T01:11:00;96189.00;;;27.10
18704;BMP180;9481;48.796;9.210;2022-08-19T01:13:31;96175.00;;;27.00
18704;BMP180;9481;48.796;9.210;2022-08-19T01:16:06;96170.00;;;27.00
18704;BMP180;9481;48.796;9.210;2022-08-19T01:18:37;96172.00;;;27.00
18704;BMP180;9481;48.796;9.210;2022-08-19T01:21:32;96170.00;;;27.00
18704;BMP180;9481;48.796;9.210;2022-08-19T01:23:56;96169.00;;;27.00
18704;BMP180;9481;48.796;9.210;2022-08-19T01:26:24;96156.00;;;27.00
18704;BMP180;9481;48.796;9.210;2022-08-19T01:28:55;96156.00;;;26.90
18704;BMP180;9481;48.796;9.210;2022-08-19T01:31:26;96155.00;;;26.90
18704;BMP180;9481;48.796;9.210;2022-08-19T01:33:56;96162.00;;;27.00
18704;BMP180;9481;48.796;9.210;2022-08-19T01:36:32;96152.00;;;26.90
18704;BMP180;9481;48.796;9.210;2022-08-19T01:39:00;96157.00;;;26.90
18704;BMP180;9481;48.796;9.210;2022-08-19T01:41:27;96165.00;;;26.90
18704;BMP180;9481;48.796;9.210;2022-08-19T01:43:53;96156.00;;;26.90
18704;BMP180;9481;48.796;9.210;2022-08-19T01:46:19;96158.00;;;26.90
18704;BMP180;9481;48.796;9.210;2022-08-19T01:48:46;96155.00;;;26.80
18704;BMP180;9481;48.796;9.210;2022-08-19T01:51:14;96163.00;;;26.90
18704;BMP180;9481;48.796;9.210;2022-08-19T01:53:41;96161.00;;;26.80
18704;BMP180;9481;48.796;9.210;2022-08-19T01:56:07;96160.00;;;26.80
18704;BMP180;9481;48.796;9.210;2022-08-19T01:58:47;96160.00;;;26.80
18704;BMP180;9481;48.796;9.210;2022-08-19T02:01:16;96167.00;;;26.80
18704;BMP180;9481;48.796;9.210;2022-08-19T02:03:42;96165.00;;;26.80
18704;BMP180;9481;48.796;9.210;2022-08-19T02:06:08;96164.00;;;26.80
18704;BMP180;9481;48.796;9.210;2022-08-19T02:08:37;96161.00;;;26.80
18704;BMP180;9481;48.796;9.210;2022-08-19T02:11:06;96166.00;;;26.80
18704;BMP180;9481;48.796;9.210;2022-08-19T02:13:34;96158.00;;;26.80
18704;BMP180;9481;48.796;9.210;2022-08-19T02:16:00;96157.00;;;26.80
18704;BMP180;9481;48.796;9.210;2022-08-19T02:18:26;96154.00;;;26.80
18704;BMP180;9481;48.796;9.210;2022-08-19T02:20:52;96159.00;;;26.80
18704;BMP180;9481;48.796;9.210;2022-08-19T02:23:18;96162.00;;;26.70
18704;BMP180;9481;48.796;9.210;2022-08-19T02:25:46;96167.00;;;26.70
18704;BMP180;9481;48.796;9.210;2022-08-19T02:28:12;96174.00;;;26.70
18704;BMP180;9481;48.796;9.210;2022-08-19T02:30:40;96176.00;;;26.60
18704;BMP180;9481;48.796;9.210;2022-08-19T02:33:06;96164.00;;;26.70
18704;BMP180;9481;48.796;9.210;2022-08-19T02:35:32;96171.00;;;26.70
18704;BMP180;9481;48.796;9.210;2022-08-19T02:37:57;96166.00;;;26.70
18704;BMP180;9481;48.796;9.210;2022-08-19T02:40:53;96165.00;;;26.60
18704;BMP180;9481;48.796;9.210;2022-08-19T02:43:19;96159.00;;;26.60
18704;BMP180;9481;48.796;9.210;2022-08-19T02:45:46;96153.00;;;26.60
18704;BMP180;9481;48.796;9.210;2022-08-19T02:48:16;96151.00;;;26.60
18704;BMP180;9481;48.796;9.210;2022-08-19T02:50:43;96151.00;;;26.60
18704;BMP180;9481;48.796;9.210;2022-08-19T02:53:09;96145.00;;;26.60
18704;BMP180;9481;48.796;9.210;2022-08-19T02:55:35;96148.00;;;26.60
18704;BMP180;9481;48.796;9.210;2022-08-19T02:58:01;96152.00;;;26.50
18704;BMP180;9481;48.796;9.210;2022-08-19T03:00:27;96143.00;;;26.50
18704;BMP180;9481;48.796;9.210;2022-08-19T03:02:53;96132.00;;;26.50
18704;BMP180;9481;48.796;9.210;2022-08-19T03:05:19;96143.00;;;26.50
18704;BMP180;9481;48.796;9.210;2022-08-19T03:07:45;96150.00;;;26.50
18704;BMP180;9481;48.796;9.210;2022-08-19T03:10:12;96154.00;;;26.40
18704;BMP180;9481;48.796;9.210;2022-08-19T03:12:38;96161.00;;;26.40
18704;BMP180;9481;48.796;9.210;2022-08-19T03:15:07;96172.00;;;26.40
18704;BMP180;9481;48.796;9.210;2022-08-19T03:17:35;96164.00;;;26.40
18704;BMP180;9481;48.796;9.210;2022-08-19T03:20:02;96164.00;;;26.40
18704;BMP180;9481;48.796;9.210;2022-08-19T03:22:28;96164.00;;;26.40
18704;BMP180;9481;48.796;9.210;2022-08-19T03:24:56;96165.00;;;26.40
18704;BMP180;9481;48.796;9.210;2022-08-19T03:27:21;96172.00;;;26.40
18704;BMP180;9481;48.796;9.210;2022-08-19T03:29:47;96171.00;;;26.40
18704;BMP180;9481;48.796;9.210;2022-08-19T03:32:13;96162.00;;;26.40
18704;BMP180;9481;48.796;9.210;2022-08-19T03:34:39;96160.00;;;26.40
18704;BMP180;9481;48.796;9.210;2022-08-19T03:37:08;96165.00;;;26.30
18704;BMP180;9481;48.796;9.210;2022-08-19T03:39:38;96165.00;;;26.30
18704;BMP180;9481;48.796;9.210;2022-08-19T03:46:07;96163.00;;;26.10
18704;BMP180;9481;48.796;9.210;2022-08-19T03:48:35;96155.00;;;26.20
18704;BMP180;9481;48.796;9.210;2022-08-19T03:51:01;96165.00;;;26.20
18704;BMP180;9481;48.796;9.210;2022-08-19T03:53:29;96165.00;;;26.20
18704;BMP180;9481;48.796;9.210;2022-08-19T03:55:57;96158.00;;;26.20
18704;BMP180;9481;48.796;9.210;2022-08-19T03:58:26;96166.00;;;26.20
18704;BMP180;9481;48.796;9.210;2022-08-19T04:00:57;96162.00;;;26.10
18704;BMP180;9481;48.796;9.210;2022-08-19T04:03:25;96174.00;;;26.10
18704;BMP180;9481;48.796;9.210;2022-08-19T04:05:52;96174.00;;;26.10
18704;BMP180;9481;48.796;9.210;2022-08-19T04:20:05;96165.00;;;25.80
18704;BMP180;9481;48.796;9.210;2022-08-19T04:29:46;96167.00;;;25.80
18704;BMP180;9481;48.796;9.210;2022-08-19T04:32:13;96166.00;;;25.80
18704;BMP180;9481;48.796;9.210;2022-08-19T04:34:41;96155.00;;;25.80
18704;BMP180;9481;48.796;9.210;2022-08-19T04:37:08;96140.00;;;25.80
18704;BMP180;9481;48.796;9.210;2022-08-19T04:39:38;96150.00;;;25.80
18704;BMP180;9481;48.796;9.210;2022-08-19T04:42:23;96164.00;;;25.80
18704;BMP180;9481;48.796;9.210;2022-08-19T04:45:13;96170.00;;;25.70
18704;BMP180;9481;48.796;9.210;2022-08-19T04:47:42;96158.00;;;25.80
18704;BMP180;9481;48.796;9.210;2022-08-19T04:50:10;96171.00;;;25.70
18704;BMP180;9481;48.796;9.210;2022-08-19T04:52:37;96152.00;;;25.80
18704;BMP180;9481;48.796;9.210;2022-08-19T04:55:09;96148.00;;;25.80
18704;BMP180;9481;48.796;9.210;2022-08-19T04:57:35;96153.00;;;25.80
18704;BMP180;9481;48.796;9.210;2022-08-19T05:00:10;96163.00;;;25.70
18704;BMP180;9481;48.796;9.210;2022-08-19T05:02:38;96166.00;;;25.70
18704;BMP180;9481;48.796;9.210;2022-08-19T05:05:04;96173.00;;;25.70
18704;BMP180;9481;48.796;9.210;2022-08-19T05:07:32;96167.00;;;25.70
18704;BMP180;9481;48.796;9.210;2022-08-19T05:09:57;96174.00;;;25.70
18704;BMP180;9481;48.796;9.210;2022-08-19T05:12:23;96186.00;;;25.70
18704;BMP180;9481;48.796;9.210;2022-08-19T05:14:50;96184.00;;;25.70
18704;BMP180;9481;48.796;9.210;2022-08-19T05:17:17;96203.00;;;25.70
18704;BMP180;9481;48.796;9.210;2022-08-19T05:19:43;96206.00;;;25.70
18704;BMP180;9481;48.796;9.210;2022-08-19T05:22:34;96213.00;;;25.70
18704;BMP180;9481;48.796;9.210;2022-08-19T05:25:09;96218.00;;;25.60
18704;BMP180;9481;48.796;9.210;2022-08-19T05:27:35;96242.00;;;25.70
18704;BMP180;9481;48.796;9.210;2022-08-19T05:30:01;96240.00;;;25.70
18704;BMP180;9481;48.796;9.210;2022-08-19T05:32:27;96257.00;;;25.70
18704;BMP180;9481;48.796;9.210;2022-08-19T05:34:53;96261.00;;;25.80
18704;BMP180;9481;48.796;9.210;2022-08-19T05:37:19;96261.00;;;25.80
18704;BMP180;9481;48.796;9.210;2022-08-19T05:39:44;96267.00;;;25.80
18704;BMP180;9481;48.796;9.210;2022-08-19T05:42:12;96256.00;;;25.80
18704;BMP180;9481;48.796;9.210;2022-08-19T05:44:42;96259.00;;;25.80
18704;BMP180;9481;48.796;9.210;2022-08-19T05:47:12;96264.00;;;25.80
18704;BMP180;9481;48.796;9.210;2022-08-19T05:49:39;96249.00;;;25.80
18704;BMP180;9481;48.796;9.210;2022-08-19T05:52:12;96255.00;;;25.80
18704;BMP180;9481;48.796;9.210;2022-08-19T05:54:40;96259.00;;;25.80
18704;BMP180;9481;48.796;9.210;2022-08-19T05:57:08;96256.00;;;25.90
18704;BMP180;9481;48.796;9.210;2022-08-19T05:59:34;96253.00;;;25.80
18704;BMP180;9481;48.796;9.210;2022-08-19T06:02:02;96251.00;;;25.90
18704;BMP180;9481;48.796;9.210;2022-08-19T06:04:28;96259.00;;;25.80
18704;BMP180;9481;48.796;9.210;2022-08-19T06:06:55;96256.00;;;25.90
18704;BMP180;9481;48.796;9.210;2022-08-19T06:09:23;96264.00;;;25.90
18704;BMP180;9481;48.796;9.210;2022-08-19T06:11:56;96260.00;;;25.80
18704;BMP180;9481;48.796;9.210;2022-08-19T06:14:31;96258.00;;;25.80
18704;BMP180;9481;48.796;9.210;2022-08-19T06:16:58;96260.00;;;25.90
18704;BMP180;9481;48.796;9.210;2022-08-19T06:19:29;96260.00;;;25.90
18704;BMP180;9481;48.796;9.210;2022-08-19T06:21:59;96258.00;;;25.80
18704;BMP180;9481;48.796;9.210;2022-08-19T06:24:28;96263.00;;;25.80
18704;BMP180;9481;48.796;9.210;2022-08-19T06:26:57;96260.00;;;25.80
18704;BMP180;9481;48.796;9.210;2022-08-19T06:29:25;96263.00;;;25.80
18704;BMP180;9481;48.796;9.210;2022-08-19T06:31:55;96264.00;;;25.80
18704;BMP180;9481;48.796;9.210;2022-08-19T06:34:22;96261.00;;;25.80
18704;BMP180;9481;48.796;9.210;2022-08-19T06:36:51;96269.00;;;25.80
18704;BMP180;9481;48.796;9.210;2022-08-19T06:39:23;96256.00;;;25.70
18704;BMP180;9481;48.796;9.210;2022-08-19T06:41:53;96260.00;;;25.80
18704;BMP180;9481;48.796;9.210;2022-08-19T06:44:22;96260.00;;;25.80
18704;BMP180;9481;48.796;9.210;2022-08-19T06:46:48;96272.00;;;25.80
18704;BMP180;9481;48.796;9.210;2022-08-19T06:49:16;96255.00;;;25.80
18704;BMP180;9481;48.796;9.210;2022-08-19T06:51:45;96271.00;;;25.80
18704;BMP180;9481;48.796;9.210;2022-08-19T06:54:13;96277.00;;;25.80
18704;BMP180;9481;48.796;9.210;2022-08-19T06:56:39;96267.00;;;25.80
18704;BMP180;9481;48.796;9.210;2022-08-19T06:59:12;96279.00;;;25.80
18704;BMP180;9481;48.796;9.210;2022-08-19T07:01:47;96273.00;;;25.80
18704;BMP180;9481;48.796;9.210;2022-08-19T07:04:24;96278.00;;;25.80
18704;BMP180;9481;48.796;9.210;2022-08-19T07:06:59;96270.00;;;25.80
18704;BMP180;9481;48.796;9.210;2022-08-19T07:09:26;96279.00;;;25.80
18704;BMP180;9481;48.796;9.210;2022-08-19T07:11:54;96275.00;;;25.90
18704;BMP180;9481;48.796;9.210;2022-08-19T07:14:25;96276.00;;;25.80
18704;BMP180;9481;48.796;9.210;2022-08-19T07:16:54;96283.00;;;25.80
18704;BMP180;9481;48.796;9.210;2022-08-19T07:19:23;96275.00;;;25.80
18704;BMP180;9481;48.796;9.210;2022-08-19T07:21:51;96282.00;;;25.90
18704;BMP180;9481;48.796;9.210;2022-08-19T07:24:22;96287.00;;;25.80
18704;BMP180;9481;48.796;9.210;2022-08-19T07:26:55;96277.00;;;25.80
18704;BMP180;9481;48.796;9.210;2022-08-19T07:29:23;96268.00;;;25.80
18704;BMP180;9481;48.796;9.210;2022-08-19T07:31:53;96280.00;;;25.80
18704;BMP180;9481;48.796;9.210;2022-08-19T07:34:22;96276.00;;;25.80
18704;BMP180;9481;48.796;9.210;2022-08-19T07:36:49;96278.00;;;25.80
18704;BMP180;9481;48.796;9.210;2022-08-19T07:39:24;96286.00;;;25.70
18704;BMP180;9481;48.796;9.210;2022-08-19T07:41:50;96284.00;;;25.70
18704;BMP180;9481;48.796;9.210;2022-08-19T07:44:19;96279.00;;;25.70
18704;BMP180;9481;48.796;9.210;2022-08-19T07:46:49;96284.00;;;25.60
18704;BMP180;9481;48.796;9.210;2022-08-19T07:49:17;96285.00;;;25.70
18704;BMP180;9481;48.796;9.210;2022-08-19T07:51:58;96279.00;;;25.60
18704;BMP180;9481;48.796;9.210;2022-08-19T07:54:26;96294.00;;;25.60
18704;BMP180;9481;48.796;9.210;2022-08-19T07:56:52;96286.00;;;25.60
18704;BMP180;9481;48.796;9.210;2022-08-19T07:59:20;96290.00;;;25.60
18704;BMP180;9481;48.796;9.210;2022-08-19T08:01:46;96287.00;;;25.60
18704;BMP180;9481;48.796;9.210;2022-08-19T08:04:13;96289.00;;;25.60
18704;BMP180;9481;48.796;9.210;2022-08-19T08:06:58;96290.00;;;25.60
18704;BMP180;9481;48.796;9.210;2022-08-19T08:09:44;96294.00;;;25.60
18704;BMP180;9481;48.796;9.210;2022-08-19T08:12:20;96303.00;;;25.60
18704;BMP180;9481;48.796;9.210;2022-08-19T08:14:52;96301.00;;;25.60
18704;BMP180;9481;48.796;9.210;2022-08-19T08:17:22;96310.00;;;25.60
18704;BMP180;9481;48.796;9.210;2022-08-19T08:19:49;96306.00;;;25.60
18704;BMP180;9481;48.796;9.210;2022-08-19T08:22:20;96302.00;;;25.60
18704;BMP180;9481;48.796;9.210;2022-08-19T08:25:24;96301.00;;;25.60
18704;BMP180;9481;48.796;9.210;2022-08-19T08:27:50;96297.00;;;25.60
18704;BMP180;9481;48.796;9.210;2022-08-19T08:30:20;96290.00;;;25.50
18704;BMP180;9481;48.796;9.210;2022-08-19T08:32:46;96299.00;;;25.60
18704;BMP180;9481;48.796;9.210;2022-08-19T08:35:17;96302.00;;;25.50
18704;BMP180;9481;48.796;9.210;2022-08-19T08:37:45;96305.00;;;25.50
18704;BMP180;9481;48.796;9.210;2022-08-19T08:40:39;96290.00;;;25.50
18704;BMP180;9481;48.796;9.210;2022-08-19T08:45:50;96295.00;;;25.50
18704;BMP180;9481;48.796;9.210;2022-08-19T08:48:32;96288.00;;;25.50
18704;BMP180;9481;48.796;9.210;2022-08-19T08:51:07;96295.00;;;25.50
18704;BMP180;9481;48.796;9.210;2022-08-19T08:53:36;96289.00;;;25.50
18704;BMP180;9481;48.796;9.210;2022-08-19T08:56:08;96289.00;;;25.50
18704;BMP180;9481;48.796;9.210;2022-08-19T08:58:58;96294.00;;;25.40
18704;BMP180;9481;48.796;9.210;2022-08-19T09:01:26;96297.00;;;25.50
18704;BMP180;9481;48.796;9.210;2022-08-19T09:03:53;96298.00;;;25.50
18704;BMP180;9481;48.796;9.210;2022-08-19T09:07:10;96294.00;;;25.50
18704;BMP180;9481;48.796;9.210;2022-08-19T09:09:47;96300.00;;;25.50
18704;BMP180;9481;48.796;9.210;2022-08-19T09:15:28;96306.00;;;25.60
18704;BMP180;9481;48.796;9.210;2022-08-19T09:17:54;96311.00;;;25.60
18704;BMP180;9481;48.796;9.210;2022-08-19T09:20:23;96310.00;;;25.60
18704;BMP180;9481;48.796;9.210;2022-08-19T09:22:49;96317.00;;;25.70
18704;BMP180;9481;48.796;9.210;2022-08-19T09:25:20;96313.00;;;25.70
18704;BMP180;9481;48.796;9.210;2022-08-19T09:27:49;96313.00;;;25.70
18704;BMP180;9481;48.796;9.210;2022-08-19T09:30:20;96313.00;;;25.70
18704;BMP180;9481;48.796;9.210;2022-08-19T09:32:47;96303.00;;;25.70
18704;BMP180;9481;48.796;9.210;2022-08-19T09:35:14;96307.00;;;25.70
18704;BMP180;9481;48.796;9.210;2022-08-19T09:37:41;96301.00;;;25.70
18704;BMP180;9481;48.796;9.210;2022-08-19T09:40:08;96302.00;;;25.70
18704;BMP180;9481;48.796;9.210;2022-08-19T09:42:34;96308.00;;;25.70
18704;BMP180;9481;48.796;9.210;2022-08-19T09:45:00;96305.00;;;25.70
18704;BMP180;9481;48.796;9.210;2022-08-19T09:47:26;96314.00;;;25.70
18704;BMP180;9481;48.796;9.210;2022-08-19T09:49:52;96313.00;;;25.70
18704;BMP180;9481;48.796;9.210;2022-08-19T09:52:17;96315.00;;;25.70
18704;BMP180;9481;48.796;9.210;2022-08-19T09:54:43;96323.00;;;25.70
18704;BMP180;9481;48.796;9.210;2022-08-19T09:57:09;96327.00;;;25.70
18704;BMP180;9481;48.796;9.210;2022-08-19T09:59:35;96333.00;;;25.70
18704;BMP180;9481;48.796;9.210;2022-08-19T10:02:01;96323.00;;;25.70
18704;BMP180;9481;48.796;9.210;2022-08-19T10:04:27;96328.00;;;25.70
18704;BMP180;9481;48.796;9.210;2022-08-19T10:07:13;96322.00;;;25.70
18704;BMP180;9481;48.796;9.210;2022-08-19T10:09:38;96328.00;;;25.70
18704;BMP180;9481;48.796;9.210;2022-08-19T10:12:07;96323.00;;;25.70
18704;BMP180;9481;48.796;9.210;2022-08-19T10:14:34;96323.00;;;25.70
18704;BMP180;9481;48.796;9.210;2022-08-19T10:17:01;96315.00;;;25.70
18704;BMP180;9481;48.796;9.210;2022-08-19T10:19:28;96323.00;;;25.80
18704;BMP180;9481;48.796;9.210;2022-08-19T10:21:55;96335.00;;;25.80
18704;BMP180;9481;48.796;9.210;2022-08-19T10:24:21;96326.00;;;25.80
18704;BMP180;9481;48.796;9.210;2022-08-19T10:26:49;96324.00;;;25.80
18704;BMP180;9481;48.796;9.210;2022-08-19T10:29:15;96336.00;;;25.80
18704;BMP180;9481;48.796;9.210;2022-08-19T10:31:42;96331.00;;;25.80
18704;BMP180;9481;48.796;9.210;2022-08-19T10:34:08;96328.00;;;25.80
18704;BMP180;9481;48.796;9.210;2022-08-19T10:36:36;96320.00;;;25.90
18704;BMP180;9481;48.796;9.210;2022-08-19T10:39:08;96323.00;;;25.90
18704;BMP180;9481;48.796;9.210;2022-08-19T10:41:37;96319.00;;;25.90
18704;BMP180;9481;48.796;9.210;2022-08-19T10:44:08;96309.00;;;25.90
18704;BMP180;9481;48.796;9.210;2022-08-19T10:46:41;96318.00;;;25.90
18704;BMP180;9481;48.796;9.210;2022-08-19T10:49:08;96314.00;;;26.00
18704;BMP180;9481;48.796;9.210;2022-08-19T10:51:35;96311.00;;;26.00
18704;BMP180;9481;48.796;9.210;2022-08-19T10:54:20;96312.00;;;26.00
18704;BMP180;9481;48.796;9.210;2022-08-19T10:56:45;96306.00;;;26.10
18704;BMP180;9481;48.796;9.210;2022-08-19T10:59:19;96319.00;;;26.10
18704;BMP180;9481;48.796;9.210;2022-08-19T11:01:46;96312.00;;;26.10
18704;BMP180;9481;48.796;9.210;2022-08-19T11:04:13;96316.00;;;26.20
18704;BMP180;9481;48.796;9.210;2022-08-19T11:06:45;96322.00;;;26.20
18704;BMP180;9481;48.796;9.210;2022-08-19T11:09:14;96317.00;;;26.20
18704;BMP180;9481;48.796;9.210;2022-08-19T11:11:41;96314.00;;;26.20
18704;BMP180;9481;48.796;9.210;2022-08-19T11:14:10;96317.00;;;26.20
18704;BMP180;9481;48.796;9.210;2022-08-19T11:16:37;96313.00;;;26.20
18704;BMP180;9481;48.796;9.210;2022-08-19T11:19:08;96316.00;;;26.20
18704;BMP180;9481;48.796;9.210;2022-08-19T11:21:38;96312.00;;;26.20
18704;BMP180;9481;48.796;9.210;2022-08-19T11:24:25;96320.00;;;26.10
18704;BMP180;9481;48.796;9.210;2022-08-19T11:26:54;96316.00;;;26.10
18704;BMP180;9481;48.796;9.210;2022-08-19T11:29:25;96323.00;;;26.10
18704;BMP180;9481;48.796;9.210;2022-08-19T11:31:53;96323.00;;;26.10
18704;BMP180;9481;48.796;9.210;2022-08-19T11:34:24;96324.00;;;26.10
18704;BMP180;9481;48.796;9.210;2022-08-19T11:36:51;96312.00;;;26.10
18704;BMP180;9481;48.796;9.210;2022-08-19T11:39:20;96316.00;;;26.10
18704;BMP180;9481;48.796;9.210;2022-08-19T11:41:47;96315.00;;;26.20
18704;BMP180;9481;48.796;9.210;2022-08-19T11:44:13;96321.00;;;26.20
18704;BMP180;9481;48.796;9.210;2022-08-19T11:46:42;96322.00;;;26.20
18704;BMP180;9481;48.796;9.210;2022-08-19T11:49:16;96318.00;;;26.20
18704;BMP180;9481;48.796;9.210;2022-08-19T11:51:44;96327.00;;;26.20
18704;BMP180;9481;48.796;9.210;2022-08-19T11:54:12;96315.00;;;26.30
18704;BMP180;9481;48.796;9.210;2022-08-19T11:56:39;96304.00;;;26.30
18704;BMP180;9481;48.796;9.210;2022-08-19T11:59:06;96306.00;;;26.30
18704;BMP180;9481;48.796;9.210;2022-08-19T12:01:33;96301.00;;;26.30
18704;BMP180;9481;48.796;9.210;2022-08-19T12:04:00;96306.00;;;26.40
18704;BMP180;9481;48.796;9.210;2022-08-19T12:06:32;96312.00;;;26.40
18704;BMP180;9481;48.796;9.210;2022-08-19T12:09:04;96312.00;;;26.40
18704;BMP180;9481;48.796;9.210;2022-08-19T12:11:31;96311.00;;;26.50
18704;BMP180;9481;48.796;9.210;2022-08-19T12:13:57;96311.00;;;26.50
18704;BMP180;9481;48.796;9.210;2022-08-19T12:16:27;96303.00;;;26.50
18704;BMP180;9481;48.796;9.210;2022-08-19T12:18:54;96319.00;;;26.50
18704;BMP180;9481;48.796;9.210;2022-08-19T12:21:24;96319.00;;;26.50
18704;BMP180;9481;48.796;9.210;2022-08-19T12:23:56;96311.00;;;26.60
18704;BMP180;9481;48.796;9.210;2022-08-19T12:26:24;96323.00;;;26.60
18704;BMP180;9481;48.796;9.210;2022-08-19T12:28:51;96311.00;;;26.50
18704;BMP180;9481;48.796;9.210;2022-08-19T12:31:17;96325.00;;;26.60
18704;BMP180;9481;48.796;9.210;2022-08-19T12:33:43;96311.00;;;26.60
18704;BMP180;9481;48.796;9.210;2022-08-19T12:36:11;96318.00;;;26.50
18704;BMP180;9481;48.796;9.210;2022-08-19T12:38:39;96309.00;;;26.50
18704;BMP180;9481;48.796;9.210;2022-08-19T12:41:06;96317.00;;;26.50
18704;BMP180;9481;48.796;9.210;2022-08-19T12:43:34;96315.00;;;26.50
18704;BMP180;9481;48.796;9.210;2022-08-19T12:46:01;96324.00;;;26.50
18704;BMP180;9481;48.796;9.210;2022-08-19T12:48:27;96313.00;;;26.50
18704;BMP180;9481;48.796;9.210;2022-08-19T12:50:54;96312.00;;;26.50
18704;BMP180;9481;48.796;9.210;2022-08-19T12:53:20;96316.00;;;26.50
18704;BMP180;9481;48.796;9.210;2022-08-19T12:55:45;96318.00;;;26.50
18704;BMP180;9481;48.796;9.210;2022-08-19T12:58:11;96323.00;;;26.50
18704;BMP180;9481;48.796;9.210;2022-08-19T13:00:39;96324.00;;;26.50
18704;BMP180;9481;48.796;9.210;2022-08-19T13:03:05;96323.00;;;26.50
18704;BMP180;9481;48.796;9.210;2022-08-19T13:05:33;96313.00;;;26.50
18704;BMP180;9481;48.796;9.210;2022-08-19T13:08:00;96319.00;;;26.50
18704;BMP180;9481;48.796;9.210;2022-08-19T13:10:31;96319.00;;;26.50
18704;BMP180;9481;48.796;9.210;2022-08-19T13:13:03;96328.00;;;26.50
18704;BMP180;9481;48.796;9.210;2022-08-19T13:15:35;96333.00;;;26.50
18704;BMP180;9481;48.796;9.210;2022-08-19T13:18:01;96338.00;;;26.50
18704;BMP180;9481;48.796;9.210;2022-08-19T13:20:27;96338.00;;;26.40
18704;BMP180;9481;48.796;9.210;2022-08-19T13:22:54;96341.00;;;26.50
18704;BMP180;9481;48.796;9.210;2022-08-19T13:25:20;96341.00;;;26.40
18704;BMP180;9481;48.796;9.210;2022-08-19T13:27:50;96350.00;;;26.40
18704;BMP180;9481;48.796;9.210;2022-08-19T13:30:18;96350.00;;;26.40
18704;BMP180;9481;48.796;9.210;2022-08-19T13:33:03;96340.00;;;26.30
18704;BMP180;9481;48.796;9.210;2022-08-19T13:35:50;96340.00;;;26.30
18704;BMP180;9481;48.796;9.210;2022-08-19T13:38:21;96337.00;;;26.30
18704;BMP180;9481;48.796;9.210;2022-08-19T13:40:50;96331.00;;;26.30
18704;BMP180;9481;48.796;9.210;2022-08-19T13:43:18;96346.00;;;26.30
18704;BMP180;9481;48.796;9.210;2022-08-19T13:45:45;96339.00;;;26.30
18704;BMP180;9481;48.796;9.210;2022-08-19T13:48:10;96344.00;;;26.20
18704;BMP180;9481;48.796;9.210;2022-08-19T13:50:43;96335.00;;;26.20
18704;BMP180;9481;48.796;9.210;2022-08-19T13:53:10;96342.00;;;26.20
18704;BMP180;9481;48.796;9.210;2022-08-19T13:55:42;96345.00;;;26.20
18704;BMP180;9481;48.796;9.210;2022-08-19T13:58:09;96344.00;;;26.20
18704;BMP180;9481;48.796;9.210;2022-08-19T14:00:44;96342.00;;;26.20
18704;BMP180;9481;48.796;9.210;2022-08-19T14:03:11;96335.00;;;26.20
18704;BMP180;9481;48.796;9.210;2022-08-19T14:05:38;96352.00;;;26.20
18704;BMP180;9481;48.796;9.210;2022-08-19T14:08:04;96351.00;;;26.20
18704;BMP180;9481;48.796;9.210;2022-08-19T14:10:29;96358.00;;;26.20
18704;BMP180;9481;48.796;9.210;2022-08-19T14:13:00;96358.00;;;26.20
18704;BMP180;9481;48.796;9.210;2022-08-19T14:15:27;96350.00;;;26.10
18704;BMP180;9481;48.796;9.210;2022-08-19T14:17:53;96353.00;;;26.10
18704;BMP180;9481;48.796;9.210;2022-08-19T14:20:20;96355.00;;;26.10
18704;BMP180;9481;48.796;9.210;2022-08-19T14:22:48;96355.00;;;26.10
18704;BMP180;9481;48.796;9.210;2022-08-19T14:25:19;96358.00;;;26.00
18704;BMP180;9481;48.796;9.210;2022-08-19T14:27:46;96356.00;;;26.00
18704;BMP180;9481;48.796;9.210;2022-08-19T14:30:16;96346.00;;;26.00
18704;BMP180;9481;48.796;9.210;2022-08-19T14:32:42;96351.00;;;26.00
18704;BMP180;9481;48.796;9.210;2022-08-19T14:35:13;96348.00;;;25.90
18704;BMP180;9481;48.796;9.210;2022-08-19T14:37:42;96349.00;;;25.90
18704;BMP180;9481;48.796;9.210;2022-08-19T14:40:08;96335.00;;;25.90
18704;BMP180;9481;48.796;9.210;2022-08-19T14:42:34;96341.00;;;25.80
18704;BMP180;9481;48.796;9.210;2022-08-19T14:45:01;96329.00;;;25.80
18704;BMP180;9481;48.796;9.210;2022-08-19T14:47:27;96339.00;;;25.80
18704;BMP180;9481;48.796;9.210;2022-08-19T14:49:53;96336.00;;;25.80
18704;BMP180;9481;48.796;9.210;2022-08-19T14:52:19;96339.00;;;25.80
18704;BMP180;9481;48.796;9.210;2022-08-19T14:54:45;96329.00;;;25.80
18704;BMP180;9481;48.796;9.210;2022-08-19T14:57:15;96328.00;;;25.80
18704;BMP180;9481;48.796;9.210;2022-08-19T14:59:43;96329.00;;;25.80
18704;BMP180;9481;48.796;9.210;2022-08-19T15:02:10;96343.00;;;25.80